createdAt,value
2023-01-10T00:00:53.377Z,1.10
2023-01-10T00:03:20.835Z,1.23
2023-01-10T00:05:48.564Z,1.40
2023-01-10T00:08:17.114Z,1.30
2023-01-10T00:10:44.487Z,1.20
2023-01-10T00:13:23.877Z,1.07
2023-01-10T00:15:55.118Z,1.37
2023-01-10T00:18:22.818Z,0.93
2023-01-10T00:20:50.289Z,1.30
2023-01-10T00:23:18.485Z,0.93
2023-01-10T00:25:46.244Z,1.40
2023-01-10T00:28:20.221Z,1.47
2023-01-10T00:30:55.038Z,1.47
2023-01-10T00:33:22.651Z,1.80
2023-01-10T00:35:49.971Z,1.87
2023-01-10T00:38:17.250Z,1.20
2023-01-10T00:40:45.216Z,0.93
2023-01-10T00:43:31.218Z,1.07
2023-01-10T00:45:58.596Z,1.13
2023-01-10T00:48:25.895Z,1.43
2023-01-10T00:50:53.281Z,1.30
2023-01-10T00:53:20.762Z,1.73
2023-01-10T00:55:48.123Z,1.17
2023-01-10T00:58:16.157Z,1.20
2023-01-10T01:00:46.925Z,1.10
2023-01-10T01:03:14.560Z,1.20
2023-01-10T01:05:42.456Z,1.10
2023-01-10T01:08:10.015Z,1.10
2023-01-10T01:10:37.559Z,1.77
2023-01-10T01:13:16.056Z,1.17
2023-01-10T01:15:43.368Z,1.27
2023-01-10T01:18:12.635Z,1.17
2023-01-10T01:20:41.105Z,1.10
2023-01-10T01:23:08.491Z,0.93
2023-01-10T01:25:36.180Z,1.57
2023-01-10T01:28:03.718Z,1.27
2023-01-10T01:30:30.988Z,1.13
2023-01-10T01:32:58.282Z,0.90
2023-01-10T01:35:25.827Z,1.37
2023-01-10T01:37:53.153Z,1.13
2023-01-10T01:40:21.712Z,1.33
2023-01-10T01:42:49.588Z,1.33
2023-01-10T01:45:19.958Z,1.20
2023-01-10T01:47:50.054Z,1.80
2023-01-10T01:50:20.197Z,1.10
2023-01-10T01:52:48.827Z,1.40
2023-01-10T01:55:16.363Z,1.30
2023-01-10T01:57:45.368Z,1.50
2023-01-10T02:00:13.369Z,1.40
2023-01-10T02:03:01.265Z,1.40
2023-01-10T02:05:30.464Z,1.10
2023-01-10T02:07:58.608Z,1.10
2023-01-10T02:10:36.348Z,1.97
2023-01-10T02:13:05.624Z,1.30
2023-01-10T02:15:33.116Z,1.27
2023-01-10T02:18:01.528Z,1.50
2023-01-10T02:20:29.693Z,1.50
2023-01-10T02:23:15.970Z,1.20
2023-01-10T02:25:57.209Z,1.10
2023-01-10T02:28:43.019Z,1.27
2023-01-10T02:31:26.488Z,1.67
2023-01-10T02:33:53.755Z,1.13
2023-01-10T02:36:26.771Z,1.43
2023-01-10T02:39:00.184Z,1.17
2023-01-10T02:41:40.644Z,1.40
2023-01-10T02:44:19.943Z,1.20
2023-01-10T02:46:49.300Z,1.50
2023-01-10T02:49:16.649Z,1.20
2023-01-10T02:51:43.938Z,1.57
2023-01-10T02:54:19.736Z,1.30
2023-01-10T02:57:05.926Z,1.67
2023-01-10T02:59:33.270Z,1.30
2023-01-10T03:02:03.459Z,1.20
2023-01-10T03:04:49.229Z,1.57
2023-01-10T03:07:34.663Z,1.20
2023-01-10T03:10:06.578Z,0.90
2023-01-10T03:12:43.365Z,1.30
2023-01-10T03:15:12.955Z,1.20
2023-01-10T03:17:40.745Z,1.20
2023-01-10T03:20:09.159Z,1.10
2023-01-10T03:22:37.457Z,1.63
2023-01-10T03:25:07.167Z,1.27
2023-01-10T03:27:52.037Z,1.30
2023-01-10T03:30:34.336Z,1.27
2023-01-10T03:33:01.829Z,1.30
2023-01-10T03:35:53.169Z,1.50
2023-01-10T03:38:22.307Z,1.20
2023-01-10T03:41:04.601Z,1.13
2023-01-10T03:44:03.002Z,1.67
2023-01-10T03:46:37.907Z,1.20
2023-01-10T03:49:06.781Z,1.50
2023-01-10T03:51:34.879Z,1.30
2023-01-10T03:54:03.053Z,1.27
2023-01-10T03:56:30.402Z,1.40
2023-01-10T03:58:57.863Z,1.37
2023-01-10T04:01:25.233Z,1.60
2023-01-10T04:03:52.807Z,1.30
2023-01-10T04:06:20.222Z,0.90
2023-01-10T04:08:47.626Z,1.43
2023-01-10T04:11:15.008Z,1.47
2023-01-10T04:13:42.711Z,1.20
2023-01-10T04:16:11.277Z,1.20
2023-01-10T04:18:38.753Z,1.20
2023-01-10T04:21:06.846Z,1.57
2023-01-10T04:23:34.156Z,1.63
2023-01-10T04:26:01.434Z,1.20
2023-01-10T04:28:28.787Z,1.47
2023-01-10T04:30:56.086Z,1.63
2023-01-10T04:33:23.444Z,1.20
2023-01-10T04:35:51.890Z,1.33
2023-01-10T04:38:19.729Z,1.50
2023-01-10T04:40:53.236Z,1.20
2023-01-10T04:43:20.585Z,1.40
2023-01-10T04:45:47.966Z,1.27
2023-01-10T04:48:15.371Z,1.43
2023-01-10T04:50:42.744Z,1.40
2023-01-10T04:53:09.974Z,1.37
2023-01-10T04:55:37.442Z,1.10
2023-01-10T04:58:05.179Z,1.50
2023-01-10T05:00:32.605Z,1.30
2023-01-10T05:03:00.107Z,1.20
2023-01-10T05:05:28.505Z,1.10
2023-01-10T05:07:55.877Z,1.70
2023-01-10T05:10:23.215Z,1.00
2023-01-10T05:12:50.658Z,1.30
2023-01-10T05:15:18.097Z,1.10
2023-01-10T05:17:45.410Z,1.73
2023-01-10T05:20:13.566Z,1.67
2023-01-10T05:22:41.064Z,1.40
2023-01-10T05:25:08.607Z,1.70
2023-01-10T05:27:35.896Z,1.63
2023-01-10T05:30:03.293Z,1.27
2023-01-10T05:32:33.376Z,1.20
2023-01-10T05:35:00.707Z,1.27
2023-01-10T05:37:30.094Z,1.53
2023-01-10T05:39:58.002Z,1.67
2023-01-10T05:42:25.349Z,1.30
2023-01-10T05:44:52.746Z,1.07
2023-01-10T05:47:19.996Z,1.13
2023-01-10T05:49:47.320Z,1.10
2023-01-10T05:52:15.262Z,1.63
2023-01-10T05:54:43.281Z,1.40
2023-01-10T05:57:10.584Z,1.23
2023-01-10T05:59:37.885Z,1.37
2023-01-10T06:02:05.226Z,1.10
2023-01-10T06:04:32.604Z,1.00
2023-01-10T06:07:00.009Z,1.10
2023-01-10T06:09:27.275Z,1.10
2023-01-10T06:11:55.405Z,1.07
2023-01-10T06:14:22.751Z,1.97
2023-01-10T06:16:50.004Z,1.23
2023-01-10T06:19:17.316Z,1.30
2023-01-10T06:21:44.825Z,1.30
2023-01-10T06:24:12.268Z,1.07
2023-01-10T06:26:39.815Z,1.33
2023-01-10T06:29:07.109Z,1.23
2023-01-10T06:31:34.493Z,1.00
2023-01-10T06:34:01.924Z,1.03
2023-01-10T06:36:29.289Z,1.40
2023-01-10T06:38:56.632Z,1.20
2023-01-10T06:41:24.060Z,1.00
2023-01-10T06:43:51.398Z,1.07
2023-01-10T06:46:22.254Z,1.17
2023-01-10T06:48:49.713Z,1.27
2023-01-10T06:51:20.730Z,1.75
2023-01-10T06:53:48.251Z,1.30
2023-01-10T06:56:15.527Z,1.33
2023-01-10T06:58:42.898Z,1.03
2023-01-10T07:01:18.101Z,1.30
2023-01-10T07:03:45.740Z,1.80
2023-01-10T07:06:13.313Z,1.33
2023-01-10T07:08:41.329Z,1.27
2023-01-10T07:11:09.718Z,1.57
2023-01-10T07:13:37.220Z,1.47
2023-01-10T07:16:05.304Z,1.10
2023-01-10T07:18:32.712Z,1.43
2023-01-10T07:21:00.021Z,1.70
2023-01-10T07:23:27.468Z,1.07
2023-01-10T07:25:54.887Z,1.43
2023-01-10T07:28:22.283Z,1.23
2023-01-10T07:30:49.637Z,1.30
2023-01-10T07:33:16.949Z,0.90
2023-01-10T07:35:44.273Z,1.50
2023-01-10T07:38:11.520Z,1.93
2023-01-10T07:40:38.832Z,1.20
2023-01-10T07:43:06.215Z,1.20
2023-01-10T07:45:33.559Z,1.10
2023-01-10T07:48:01.752Z,1.53
2023-01-10T07:50:30.101Z,1.43
2023-01-10T07:52:57.876Z,1.33
2023-01-10T07:55:25.223Z,1.33
2023-01-10T07:57:52.639Z,1.53
2023-01-10T08:00:20.455Z,1.40
2023-01-10T08:02:48.467Z,1.30
2023-01-10T08:05:15.861Z,1.67
2023-01-10T08:07:43.167Z,1.97
2023-01-10T08:10:10.761Z,1.30
2023-01-10T08:12:38.138Z,1.33
2023-01-10T08:15:05.593Z,1.47
2023-01-10T08:17:36.474Z,1.10
2023-01-10T08:20:03.872Z,1.43
2023-01-10T08:22:31.304Z,1.47
2023-01-10T08:24:58.593Z,1.57
2023-01-10T08:27:25.884Z,1.53
2023-01-10T08:29:53.431Z,1.80
2023-01-10T08:32:20.804Z,1.43
2023-01-10T08:34:48.187Z,1.40
2023-01-10T08:37:15.532Z,1.30
2023-01-10T08:39:43.083Z,1.20
2023-01-10T08:42:10.334Z,1.33
2023-01-10T08:44:37.657Z,1.43
2023-01-10T08:47:05.089Z,1.47
2023-01-10T08:49:32.403Z,1.47
2023-01-10T08:51:59.625Z,1.65
2023-01-10T08:54:26.881Z,1.57
2023-01-10T08:56:54.207Z,1.43
2023-01-10T08:59:21.531Z,1.40
2023-01-10T09:01:48.859Z,1.50
2023-01-10T09:04:17.228Z,1.40
2023-01-10T09:06:44.549Z,1.53
2023-01-10T09:09:11.948Z,1.53
2023-01-10T09:11:41.750Z,1.37
2023-01-10T09:14:09.164Z,1.40
2023-01-10T09:16:36.473Z,1.40
2023-01-10T09:19:04.352Z,1.73
2023-01-10T09:21:31.759Z,1.20
2023-01-10T09:23:59.125Z,1.23
2023-01-10T09:26:26.456Z,1.30
2023-01-10T09:28:53.762Z,2.10
2023-01-10T09:31:21.172Z,1.87
2023-01-10T09:33:49.792Z,1.97
2023-01-10T09:36:17.527Z,1.80
2023-01-10T09:38:45.219Z,1.70
2023-01-10T09:41:18.442Z,1.63
2023-01-10T09:43:54.905Z,1.80
2023-01-10T09:46:41.300Z,1.43
2023-01-10T09:49:27.627Z,2.17
2023-01-10T09:51:59.080Z,1.30
2023-01-10T09:54:32.496Z,1.40
2023-01-10T09:57:01.291Z,1.43
2023-01-10T09:59:39.781Z,1.77
2023-01-10T10:02:28.312Z,1.30
2023-01-10T10:05:08.688Z,1.20
2023-01-10T10:07:36.395Z,2.07
2023-01-10T10:10:07.902Z,1.93
2023-01-10T10:12:51.396Z,1.80
2023-01-10T10:15:22.622Z,1.63
2023-01-10T10:18:08.425Z,1.23
2023-01-10T10:20:51.420Z,1.50
2023-01-10T10:23:37.720Z,1.30
2023-01-10T10:26:05.027Z,1.40
2023-01-10T10:28:54.940Z,1.70
2023-01-10T10:31:41.103Z,1.37
2023-01-10T10:34:08.444Z,1.57
2023-01-10T10:36:43.942Z,1.33
2023-01-10T10:39:15.597Z,1.20
2023-01-10T10:41:44.531Z,1.27
2023-01-10T10:44:23.027Z,1.17
2023-01-10T10:46:50.283Z,1.63
2023-01-10T10:49:25.141Z,1.80
2023-01-10T10:51:53.522Z,1.80
2023-01-10T10:54:21.143Z,1.67
2023-01-10T10:56:48.934Z,1.77
2023-01-10T10:59:18.250Z,1.70
2023-01-10T11:01:49.933Z,1.60
2023-01-10T11:04:18.983Z,2.50
2023-01-10T11:06:49.236Z,1.93
2023-01-10T11:09:21.432Z,1.53
2023-01-10T11:11:51.877Z,1.33
2023-01-10T11:14:39.152Z,1.70
2023-01-10T11:17:41.418Z,1.90
2023-01-10T11:20:16.529Z,1.63
2023-01-10T11:22:48.984Z,1.60
2023-01-10T11:25:17.320Z,1.50
2023-01-10T11:27:50.357Z,1.70
2023-01-10T11:30:19.741Z,1.33
2023-01-10T11:32:58.522Z,1.63
2023-01-10T11:35:29.083Z,1.50
2023-01-10T11:38:00.429Z,2.23
2023-01-10T11:40:28.527Z,1.33
2023-01-10T11:42:59.588Z,1.40
2023-01-10T11:45:29.424Z,2.00
2023-01-10T11:47:59.991Z,1.97
2023-01-10T11:50:35.220Z,1.93
2023-01-10T11:53:02.805Z,1.50
2023-01-10T11:55:31.483Z,1.63
2023-01-10T11:57:58.894Z,1.50
2023-01-10T12:00:34.474Z,1.83
2023-01-10T12:03:02.026Z,1.60
2023-01-10T12:05:29.705Z,1.70
2023-01-10T12:07:58.491Z,1.40
2023-01-10T12:10:27.344Z,1.50
2023-01-10T12:12:58.861Z,1.30
2023-01-10T12:15:30.670Z,1.20
2023-01-10T12:17:59.486Z,1.40
2023-01-10T12:20:28.669Z,1.50
2023-01-10T12:23:00.927Z,1.10
2023-01-10T12:25:34.082Z,1.70
2023-01-10T12:28:01.977Z,1.50
2023-01-10T12:30:38.850Z,1.80
2023-01-10T12:33:14.530Z,1.60
2023-01-10T12:35:44.656Z,1.30
2023-01-10T12:38:38.540Z,1.80
2023-01-10T12:41:08.859Z,1.60
2023-01-10T12:43:57.641Z,1.33
2023-01-10T12:46:56.620Z,1.43
2023-01-10T12:49:18.937Z,1.60
2023-01-10T12:51:49.441Z,1.73
2023-01-10T12:54:21.634Z,1.47
2023-01-10T12:56:49.425Z,1.67
2023-01-10T12:59:36.670Z,1.27
2023-01-10T13:02:25.021Z,1.80
2023-01-10T13:04:54.242Z,1.40
2023-01-10T13:07:22.332Z,1.50
2023-01-10T13:09:49.722Z,2.03
2023-01-10T13:12:37.406Z,1.50
2023-01-10T13:15:15.626Z,1.70
2023-01-10T13:17:44.721Z,1.20
2023-01-10T13:20:18.011Z,1.47
2023-01-10T13:22:51.339Z,1.73
2023-01-10T13:25:20.969Z,1.77
2023-01-10T13:27:52.801Z,2.00
2023-01-10T13:30:27.611Z,1.30
2023-01-10T13:33:03.784Z,2.07
2023-01-10T13:35:39.173Z,1.80
2023-01-10T13:38:07.316Z,1.43
2023-01-10T13:40:34.951Z,1.77
2023-01-10T13:43:21.249Z,1.93
2023-01-10T13:45:48.715Z,1.67
2023-01-10T13:48:34.192Z,2.27
2023-01-10T13:51:07.813Z,1.50
2023-01-10T13:53:35.088Z,1.67
2023-01-10T13:56:02.399Z,1.57
2023-01-10T13:59:01.480Z,1.80
2023-01-10T14:01:50.123Z,1.60
2023-01-10T14:04:26.212Z,1.40
2023-01-10T14:06:55.460Z,2.00
2023-01-10T14:09:22.855Z,2.17
2023-01-10T14:11:50.182Z,1.60
2023-01-10T14:14:27.005Z,1.90
2023-01-10T14:16:56.145Z,1.10
2023-01-10T14:19:25.211Z,1.50
2023-01-10T14:21:54.174Z,1.50
2023-01-10T14:24:26.753Z,1.33
2023-01-10T14:26:57.393Z,1.33
2023-01-10T14:29:28.587Z,1.47
2023-01-10T14:31:56.542Z,2.07
2023-01-10T14:34:25.607Z,1.70
2023-01-10T14:37:01.245Z,1.37
2023-01-10T14:39:29.392Z,1.40
2023-01-10T14:42:02.681Z,1.23
2023-01-10T14:44:39.213Z,1.30
2023-01-10T14:47:06.615Z,1.47
2023-01-10T14:49:48.819Z,1.80
2023-01-10T14:52:24.188Z,1.50
2023-01-10T14:54:57.036Z,1.40
2023-01-10T14:57:25.021Z,1.50
2023-01-10T15:00:03.716Z,1.40
2023-01-10T15:02:31.647Z,1.53
2023-01-10T15:05:01.514Z,1.33
2023-01-10T15:07:29.176Z,1.40
2023-01-10T15:09:57.723Z,1.10
2023-01-10T15:12:26.456Z,1.33
2023-01-10T15:15:14.435Z,1.43
2023-01-10T15:17:42.391Z,1.47
2023-01-10T15:20:15.252Z,1.30
2023-01-10T15:22:44.095Z,1.13
2023-01-10T15:25:20.520Z,1.23
2023-01-10T15:27:50.275Z,1.53
2023-01-10T15:30:20.701Z,1.57
2023-01-10T15:32:50.294Z,1.47
2023-01-10T15:35:20.419Z,1.40
2023-01-10T15:37:52.474Z,1.37
2023-01-10T15:40:29.950Z,1.63
2023-01-10T15:43:16.100Z,1.17
2023-01-10T15:45:44.842Z,1.20
2023-01-10T15:48:35.614Z,1.13
2023-01-10T15:51:06.543Z,1.20
2023-01-10T15:53:52.827Z,1.33
2023-01-10T15:56:26.813Z,1.23
2023-01-10T15:58:54.498Z,1.60
2023-01-10T16:01:22.267Z,1.50
2023-01-10T16:03:54.197Z,1.20
2023-01-10T16:06:23.487Z,1.20
2023-01-10T16:08:51.809Z,1.30
2023-01-10T16:11:58.304Z,1.67
2023-01-10T16:14:25.622Z,1.13
2023-01-10T16:16:52.947Z,1.30
2023-01-10T16:19:20.223Z,1.23
2023-01-10T16:21:50.391Z,1.40
2023-01-10T16:24:22.178Z,1.30
2023-01-10T16:26:50.372Z,0.97
2023-01-10T16:29:20.459Z,1.27
2023-01-10T16:31:47.916Z,1.33
2023-01-10T16:34:15.502Z,1.20
2023-01-10T16:36:43.781Z,1.37
2023-01-10T16:39:18.417Z,1.20
2023-01-10T16:42:04.764Z,1.20
2023-01-10T16:44:32.612Z,1.17
2023-01-10T16:47:00.387Z,1.07
2023-01-10T16:49:27.977Z,1.30
2023-01-10T16:51:57.835Z,1.20
2023-01-10T16:54:25.884Z,1.20
2023-01-10T16:56:53.501Z,1.30
2023-01-10T16:59:20.899Z,1.40
2023-01-10T17:01:53.365Z,1.00
2023-01-10T17:04:28.102Z,1.20
2023-01-10T17:06:56.679Z,1.20
2023-01-10T17:09:25.677Z,1.03
2023-01-10T17:12:02.008Z,1.10
2023-01-10T17:14:30.272Z,1.27
2023-01-10T17:16:57.722Z,1.53
2023-01-10T17:19:27.851Z,1.20
2023-01-10T17:21:55.257Z,1.10
2023-01-10T17:24:24.464Z,1.27
2023-01-10T17:26:51.840Z,1.30
2023-01-10T17:29:19.106Z,1.40
2023-01-10T17:31:46.443Z,1.60
2023-01-10T17:34:13.864Z,1.43
2023-01-10T17:36:42.569Z,1.43
2023-01-10T17:39:09.887Z,1.40
2023-01-10T17:41:37.157Z,1.30
2023-01-10T17:44:04.581Z,1.53
2023-01-10T17:46:31.923Z,1.40
2023-01-10T17:48:59.279Z,1.70
2023-01-10T17:51:28.894Z,1.80
2023-01-10T17:53:56.566Z,1.60
2023-01-10T17:56:24.610Z,1.77
2023-01-10T17:58:52.993Z,1.60
2023-01-10T18:01:24.635Z,1.73
2023-01-10T18:03:52.926Z,1.77
2023-01-10T18:06:24.163Z,2.07
2023-01-10T18:08:51.955Z,1.80
2023-01-10T18:11:19.309Z,1.67
2023-01-10T18:13:46.686Z,1.50
2023-01-10T18:16:13.940Z,1.83
2023-01-10T18:18:41.317Z,1.57
2023-01-10T18:21:15.847Z,1.60
2023-01-10T18:23:43.202Z,1.60
2023-01-10T18:26:11.743Z,1.70
2023-01-10T18:28:43.422Z,1.70
2023-01-10T18:31:14.093Z,2.33
2023-01-10T18:33:41.541Z,1.87
2023-01-10T18:36:14.528Z,2.13
2023-01-10T18:38:41.977Z,1.83
2023-01-10T18:41:09.369Z,1.77
2023-01-10T18:43:36.682Z,1.90
2023-01-10T18:46:05.531Z,2.00
2023-01-10T18:48:33.199Z,2.20
2023-01-10T18:51:01.863Z,1.63
2023-01-10T18:53:29.239Z,1.90
2023-01-10T18:55:57.272Z,2.27
2023-01-10T18:58:25.393Z,2.27
2023-01-10T19:00:52.993Z,2.10
2023-01-10T19:03:21.448Z,2.03
2023-01-10T19:05:48.851Z,2.37
2023-01-10T19:08:16.620Z,2.40
2023-01-10T19:11:11.375Z,2.20
2023-01-10T19:13:32.108Z,2.60
2023-01-10T19:16:32.359Z,2.43
2023-01-10T19:19:02.406Z,2.13
2023-01-10T19:21:31.569Z,2.10
2023-01-10T19:24:03.246Z,2.00
2023-01-10T19:26:31.010Z,2.53
2023-01-10T19:28:58.507Z,1.90
2023-01-10T19:31:27.759Z,2.00
2023-01-10T19:33:55.337Z,2.10
2023-01-10T19:36:25.075Z,2.03
2023-01-10T19:38:56.672Z,2.13
2023-01-10T19:41:24.891Z,1.90
2023-01-10T19:43:59.644Z,2.27
2023-01-10T19:46:27.440Z,2.00
2023-01-10T19:48:58.175Z,2.13
2023-01-10T19:51:25.832Z,2.50
2023-01-10T19:53:53.813Z,1.83
2023-01-10T19:56:22.975Z,1.63
2023-01-10T19:58:50.638Z,1.80
2023-01-10T20:01:20.121Z,2.43
2023-01-10T20:03:50.655Z,2.50
2023-01-10T20:06:20.772Z,1.93
2023-01-10T20:08:48.350Z,2.37
2023-01-10T20:11:15.934Z,1.97
2023-01-10T20:13:45.129Z,2.40
2023-01-10T20:16:13.561Z,2.40
2023-01-10T20:18:41.161Z,2.30
2023-01-10T20:21:09.928Z,2.03
2023-01-10T20:23:37.906Z,2.80
2023-01-10T20:26:06.703Z,2.20
2023-01-10T20:28:34.807Z,2.27
2023-01-10T20:31:02.652Z,2.40
2023-01-10T20:33:30.755Z,2.10
2023-01-10T20:35:59.926Z,2.17
2023-01-10T20:38:28.202Z,2.27
2023-01-10T20:40:57.571Z,2.10
2023-01-10T20:43:25.205Z,2.03
2023-01-10T20:45:52.506Z,2.17
2023-01-10T20:48:20.317Z,2.23
2023-01-10T20:50:47.756Z,2.20
2023-01-10T20:53:15.645Z,2.13
2023-01-10T20:55:44.280Z,2.17
2023-01-10T20:58:12.730Z,2.03
2023-01-10T21:00:40.018Z,2.00
2023-01-10T21:03:07.405Z,2.43
2023-01-10T21:05:36.127Z,1.70
2023-01-10T21:08:03.587Z,1.87
2023-01-10T21:10:31.007Z,1.93
2023-01-10T21:12:58.345Z,2.40
2023-01-10T21:15:25.651Z,2.10
2023-01-10T21:17:53.149Z,2.37
2023-01-10T21:20:20.560Z,1.87
2023-01-10T21:22:47.837Z,1.93
2023-01-10T21:25:15.215Z,1.90
2023-01-10T21:27:42.514Z,2.10
2023-01-10T21:30:10.531Z,2.37
2023-01-10T21:32:37.787Z,2.00
2023-01-10T21:35:05.216Z,1.90
2023-01-10T21:37:32.539Z,2.20
2023-01-10T21:39:59.908Z,1.97
2023-01-10T21:42:38.060Z,2.27
2023-01-10T21:45:06.857Z,2.40
2023-01-10T21:47:35.899Z,2.03
2023-01-10T21:50:03.916Z,2.07
2023-01-10T21:52:31.161Z,1.93
2023-01-10T21:54:58.670Z,2.17
2023-01-10T21:57:26.486Z,2.60
2023-01-10T21:59:54.244Z,2.20
2023-01-10T22:02:22.758Z,2.10
2023-01-10T22:04:51.345Z,2.53
2023-01-10T22:07:20.815Z,2.07
2023-01-10T22:09:50.590Z,2.40
2023-01-10T22:12:18.626Z,2.43
2023-01-10T22:14:46.157Z,1.73
2023-01-10T22:17:13.980Z,1.60
2023-01-10T22:19:41.351Z,2.07
2023-01-10T22:22:09.034Z,2.03
2023-01-10T22:24:36.353Z,2.13
2023-01-10T22:27:04.988Z,2.10
2023-01-10T22:29:32.412Z,1.93
2023-01-10T22:31:59.846Z,2.00
2023-01-10T22:34:27.168Z,2.23
2023-01-10T22:36:54.509Z,2.10
2023-01-10T22:39:21.829Z,2.03
2023-01-10T22:41:49.143Z,2.07
2023-01-10T22:44:24.078Z,1.83
2023-01-10T22:46:51.768Z,2.07
2023-01-10T22:49:19.092Z,1.73
2023-01-10T22:51:46.416Z,2.23
2023-01-10T22:54:15.911Z,2.27
2023-01-10T22:56:44.011Z,1.90
2023-01-10T23:04:41.010Z,1.70
2023-01-10T23:07:08.283Z,1.83
2023-01-10T23:09:35.546Z,1.87
2023-01-10T23:12:02.896Z,1.67
2023-01-10T23:14:30.161Z,1.87
2023-01-10T23:16:57.429Z,1.90
2023-01-10T23:19:24.709Z,1.90
2023-01-10T23:21:52.006Z,2.00
2023-01-10T23:24:19.343Z,2.07
2023-01-10T23:26:46.666Z,1.67
2023-01-10T23:29:13.927Z,1.67
2023-01-10T23:31:41.288Z,1.57
2023-01-10T23:34:08.913Z,1.87
2023-01-10T23:36:36.166Z,1.70
2023-01-10T23:39:03.423Z,2.20
2023-01-10T23:41:30.653Z,1.70
2023-01-10T23:43:57.967Z,1.70
2023-01-10T23:46:25.355Z,1.63
2023-01-10T23:48:52.738Z,2.00
2023-01-10T23:51:20.085Z,1.57
2023-01-10T23:53:47.353Z,1.60
2023-01-10T23:56:15.551Z,1.87
2023-01-10T23:58:42.902Z,1.80
